createdAt,value
2023-08-29T00:02:11.520Z,8.02
2023-08-29T00:04:42.963Z,3.35
2023-08-29T00:07:14.430Z,4.97
2023-08-29T00:09:47.167Z,5.22
2023-08-29T00:12:18.635Z,3.67
2023-08-29T00:14:49.873Z,9.85
2023-08-29T00:17:21.821Z,3.10
2023-08-29T00:19:53.002Z,4.32
2023-08-29T00:22:29.861Z,3.47
2023-08-29T00:25:01.236Z,4.13
2023-08-29T00:27:32.818Z,3.35
2023-08-29T00:30:04.176Z,1.92
2023-08-29T00:32:36.682Z,2.47
2023-08-29T00:35:08.168Z,5.13
2023-08-29T00:37:39.626Z,4.15
2023-08-29T00:40:12.604Z,3.00
2023-08-29T00:42:44.129Z,8.50
2023-08-29T00:45:20.970Z,2.78
2023-08-29T00:47:52.385Z,2.85
2023-08-29T00:50:23.913Z,2.38
2023-08-29T00:53:01.144Z,4.95
2023-08-29T00:55:34.226Z,3.42
2023-08-29T00:58:09.142Z,3.70
2023-08-29T01:00:41.651Z,4.95
2023-08-29T01:03:13.474Z,7.82
2023-08-29T01:05:44.779Z,8.52
2023-08-29T01:08:16.949Z,9.60
2023-08-29T01:11:06.350Z,3.75
2023-08-29T01:14:12.417Z,9.32
2023-08-29T01:17:07.482Z,3.95
2023-08-29T01:19:43.865Z,9.68
2023-08-29T01:22:41.206Z,7.65
2023-08-29T01:25:34.409Z,2.95
2023-08-29T01:28:07.755Z,8.50
2023-08-29T01:30:41.024Z,4.18
2023-08-29T01:33:12.472Z,8.50
2023-08-29T01:35:49.916Z,4.60
2023-08-29T01:38:21.121Z,6.53
2023-08-29T01:40:51.777Z,7.93
2023-08-29T01:43:22.100Z,13.30
2023-08-29T01:45:53.707Z,2.58
2023-08-29T01:48:24.842Z,2.72
2023-08-29T01:50:56.672Z,4.55
2023-08-29T01:53:31.083Z,11.38
2023-08-29T01:56:03.825Z,7.75
2023-08-29T01:58:36.515Z,2.78
2023-08-29T02:01:21.444Z,5.00
2023-08-29T02:03:57.485Z,7.97
2023-08-29T02:06:27.936Z,4.32
2023-08-29T02:08:58.067Z,3.05
2023-08-29T02:11:28.222Z,4.97
2023-08-29T02:14:01.332Z,5.82
2023-08-29T02:16:34.020Z,2.58
2023-08-29T02:19:04.899Z,4.32
2023-08-29T02:21:35.067Z,7.22
2023-08-29T02:24:05.598Z,6.28
2023-08-29T02:26:35.680Z,5.32
2023-08-29T02:29:05.525Z,3.17
2023-08-29T02:31:40.114Z,4.90
2023-08-29T02:34:10.263Z,2.38
2023-08-29T02:36:40.377Z,3.05
2023-08-29T02:39:10.424Z,5.78
2023-08-29T02:41:40.703Z,2.83
2023-08-29T02:44:10.769Z,3.45
2023-08-29T02:46:41.698Z,2.50
2023-08-29T02:49:11.801Z,4.32
2023-08-29T02:51:41.638Z,6.95
2023-08-29T02:54:11.700Z,9.18
2023-08-29T02:56:41.591Z,4.13
2023-08-29T02:59:11.653Z,4.72
2023-08-29T03:01:41.850Z,3.53
2023-08-29T03:04:12.981Z,7.88
2023-08-29T03:06:44.130Z,1.92
2023-08-29T03:09:15.475Z,4.60
2023-08-29T03:11:45.588Z,1.27
2023-08-29T03:14:16.122Z,3.83
2023-08-29T03:16:46.871Z,3.88
2023-08-29T03:19:19.003Z,1.92
2023-08-29T03:21:49.374Z,5.10
2023-08-29T03:24:19.463Z,2.30
2023-08-29T03:26:49.543Z,3.17
2023-08-29T03:29:19.633Z,4.30
2023-08-29T03:31:50.017Z,4.57
2023-08-29T03:34:20.897Z,2.90
2023-08-29T03:36:50.970Z,2.67
2023-08-29T03:39:21.060Z,3.22
2023-08-29T03:41:51.290Z,4.93
2023-08-29T03:44:21.370Z,3.28
2023-08-29T03:46:51.725Z,4.75
2023-08-29T03:49:21.756Z,12.38
2023-08-29T03:51:51.595Z,6.63
2023-08-29T03:54:21.854Z,3.97
2023-08-29T03:56:52.152Z,7.43
2023-08-29T03:59:22.227Z,3.55
2023-08-29T04:01:52.852Z,3.13
2023-08-29T04:04:24.897Z,4.57
2023-08-29T04:06:56.555Z,3.70
2023-08-29T04:09:26.622Z,1.92
2023-08-29T04:11:57.032Z,7.72
2023-08-29T04:14:27.263Z,9.40
2023-08-29T04:16:58.151Z,2.50
2023-08-29T04:19:28.629Z,3.22
2023-08-29T04:21:59.287Z,6.95
2023-08-29T04:24:30.849Z,6.45
2023-08-29T04:27:00.900Z,5.88
2023-08-29T04:29:30.965Z,16.75
2023-08-29T04:32:01.089Z,17.83
2023-08-29T04:34:31.935Z,19.98
2023-08-29T04:37:02.024Z,16.98
2023-08-29T04:39:32.097Z,29.30
2023-08-29T04:42:02.258Z,34.03
2023-08-29T04:44:32.896Z,25.88
2023-08-29T04:47:03.476Z,24.63
2023-08-29T04:49:35.493Z,30.13
2023-08-29T04:52:05.864Z,44.22
2023-08-29T04:54:36.169Z,32.00
2023-08-29T04:57:09.317Z,29.00
2023-08-29T04:59:39.505Z,28.50
2023-08-29T05:02:10.653Z,24.10
2023-08-29T05:04:40.860Z,32.38
2023-08-29T05:07:12.089Z,32.40
2023-08-29T05:09:42.260Z,29.10
2023-08-29T05:12:13.237Z,25.00
2023-08-29T05:14:43.260Z,26.17
2023-08-29T05:17:13.558Z,18.15
2023-08-29T05:19:43.990Z,21.45
2023-08-29T05:22:14.330Z,23.40
2023-08-29T05:24:44.885Z,30.52
2023-08-29T05:27:14.984Z,23.63
2023-08-29T05:29:45.104Z,21.70
2023-08-29T05:32:15.189Z,28.20
2023-08-29T05:34:45.275Z,22.15
2023-08-29T05:37:15.361Z,20.88
2023-08-29T05:39:45.372Z,15.27
2023-08-29T05:42:15.470Z,16.45
2023-08-29T05:44:45.816Z,19.33
2023-08-29T05:47:15.934Z,14.90
2023-08-29T05:49:45.996Z,21.15
2023-08-29T05:52:16.094Z,15.60
2023-08-29T05:54:46.327Z,18.58
2023-08-29T05:57:16.389Z,16.58
2023-08-29T05:59:46.480Z,16.75
2023-08-29T06:02:16.690Z,15.98
2023-08-29T06:04:46.776Z,11.13
2023-08-29T06:07:16.922Z,12.52
2023-08-29T06:09:46.970Z,12.35
2023-08-29T06:12:17.101Z,9.18
2023-08-29T06:14:47.132Z,8.95
2023-08-29T06:17:17.184Z,12.18
2023-08-29T06:19:47.387Z,11.38
2023-08-29T06:22:17.274Z,10.50
2023-08-29T06:24:47.334Z,17.55
2023-08-29T06:27:17.421Z,10.63
2023-08-29T06:29:47.845Z,14.27
2023-08-29T06:32:38.021Z,7.90
2023-08-29T06:35:09.997Z,7.28
2023-08-29T06:37:40.591Z,9.20
2023-08-29T06:40:12.463Z,18.10
2023-08-29T06:42:42.634Z,17.65
2023-08-29T06:45:12.876Z,11.85
2023-08-29T06:47:43.165Z,20.33
2023-08-29T06:50:13.865Z,16.45
2023-08-29T06:52:43.941Z,18.77
2023-08-29T06:55:13.859Z,13.88
2023-08-29T06:57:43.935Z,12.07
2023-08-29T07:00:15.297Z,9.80
2023-08-29T07:02:45.451Z,9.27
2023-08-29T07:05:15.605Z,15.05
2023-08-29T07:07:46.897Z,10.10
2023-08-29T07:10:17.045Z,29.02
2023-08-29T07:12:47.101Z,12.77
2023-08-29T07:15:17.252Z,11.63
2023-08-29T07:17:47.452Z,15.18
2023-08-29T07:20:18.221Z,11.35
2023-08-29T07:22:48.338Z,14.27
2023-08-29T07:25:22.155Z,16.85
2023-08-29T07:27:52.297Z,13.13
2023-08-29T07:30:22.376Z,23.20
2023-08-29T07:32:52.499Z,13.95
2023-08-29T07:35:22.573Z,14.65
2023-08-29T07:37:54.137Z,15.43
2023-08-29T07:40:24.315Z,13.82
2023-08-29T07:42:54.396Z,16.80
2023-08-29T07:45:24.745Z,16.10
2023-08-29T07:47:54.866Z,10.05
2023-08-29T07:50:25.088Z,11.20
2023-08-29T07:52:55.246Z,11.43
2023-08-29T07:55:25.363Z,13.50
2023-08-29T07:57:55.599Z,10.23
2023-08-29T08:00:26.857Z,13.77
2023-08-29T08:02:57.115Z,10.13
2023-08-29T08:05:27.661Z,11.07
2023-08-29T08:07:59.198Z,7.95
2023-08-29T08:10:29.535Z,11.40
2023-08-29T08:13:00.312Z,9.90
2023-08-29T08:15:30.424Z,14.15
2023-08-29T08:18:00.574Z,12.20
2023-08-29T08:20:30.818Z,9.48
2023-08-29T08:23:00.934Z,8.25
2023-08-29T08:25:31.004Z,10.25
2023-08-29T08:28:01.137Z,10.50
2023-08-29T08:30:31.255Z,11.82
2023-08-29T08:33:01.411Z,8.63
2023-08-29T08:35:33.616Z,11.98
2023-08-29T08:38:09.326Z,7.63
2023-08-29T08:40:43.709Z,7.35
2023-08-29T08:43:15.322Z,8.13
2023-08-29T08:45:46.162Z,8.10
2023-08-29T08:48:17.338Z,9.55
2023-08-29T08:50:49.988Z,8.10
2023-08-29T08:53:24.872Z,11.48
2023-08-29T08:55:55.031Z,8.95
2023-08-29T08:58:25.148Z,6.55
2023-08-29T09:00:56.780Z,7.38
2023-08-29T09:03:27.442Z,6.72
2023-08-29T09:05:57.395Z,14.02
2023-08-29T09:08:27.803Z,10.60
2023-08-29T09:11:03.509Z,7.22
2023-08-29T09:13:33.964Z,8.00
2023-08-29T09:16:07.387Z,14.65
2023-08-29T09:18:37.568Z,8.98
2023-08-29T09:21:07.631Z,9.43
2023-08-29T09:23:40.421Z,8.50
2023-08-29T09:26:14.342Z,10.13
2023-08-29T09:28:46.138Z,5.60
2023-08-29T09:31:18.787Z,5.35
2023-08-29T09:33:50.497Z,5.32
2023-08-29T09:36:23.467Z,7.35
2023-08-29T09:38:53.665Z,5.50
2023-08-29T09:41:23.947Z,6.10
2023-08-29T09:43:54.219Z,8.05
2023-08-29T09:46:28.063Z,12.30
2023-08-29T09:48:59.406Z,6.00
2023-08-29T09:51:32.606Z,5.65
2023-08-29T09:54:05.941Z,6.50
2023-08-29T09:56:37.706Z,12.95
2023-08-29T09:59:14.336Z,7.65
2023-08-29T10:01:46.936Z,9.73
2023-08-29T10:04:25.157Z,11.27
2023-08-29T10:06:59.471Z,11.30
2023-08-29T10:09:32.290Z,10.93
2023-08-29T10:12:03.870Z,11.75
2023-08-29T10:14:35.145Z,7.90
2023-08-29T10:17:10.830Z,11.52
2023-08-29T10:19:47.344Z,13.02
2023-08-29T10:22:20.103Z,14.27
2023-08-29T10:24:52.746Z,23.00
2023-08-29T10:27:22.790Z,7.68
2023-08-29T10:29:52.716Z,17.35
2023-08-29T10:32:25.359Z,16.73
2023-08-29T10:34:58.358Z,14.93
2023-08-29T10:37:31.299Z,12.38
2023-08-29T10:40:14.642Z,10.52
2023-08-29T10:43:02.839Z,13.63
2023-08-29T10:45:51.033Z,10.52
2023-08-29T10:48:40.225Z,20.45
2023-08-29T10:51:13.142Z,9.68
2023-08-29T10:53:49.476Z,9.82
2023-08-29T10:56:24.812Z,12.20
2023-08-29T10:58:56.446Z,10.63
2023-08-29T11:01:30.862Z,8.82
2023-08-29T11:04:14.052Z,12.50
2023-08-29T11:06:58.225Z,5.10
2023-08-29T11:09:28.781Z,5.55
2023-08-29T11:12:09.887Z,17.98
2023-08-29T11:15:00.276Z,7.85
2023-08-29T11:17:30.523Z,15.55
2023-08-29T11:20:08.245Z,7.90
2023-08-29T11:22:40.404Z,11.18
2023-08-29T11:25:10.978Z,11.77
2023-08-29T11:27:41.518Z,15.32
2023-08-29T11:32:54.282Z,10.07
2023-08-29T11:35:24.403Z,9.85
2023-08-29T11:37:55.434Z,11.85
2023-08-29T11:40:32.196Z,10.95
2023-08-29T11:44:12.459Z,11.43
2023-08-29T11:46:05.595Z,11.82
2023-08-29T11:51:08.858Z,6.65
2023-08-29T11:53:40.545Z,10.65
2023-08-29T11:56:12.987Z,11.65
2023-08-29T11:58:45.417Z,12.32
2023-08-29T12:01:15.523Z,17.67
2023-08-29T12:03:45.762Z,36.55
2023-08-29T12:06:16.167Z,18.75
2023-08-29T12:08:48.082Z,8.73
2023-08-29T12:16:34.272Z,13.45
2023-08-29T12:19:16.175Z,10.40
2023-08-29T12:21:56.692Z,8.98
2023-08-29T12:24:26.842Z,5.30
2023-08-29T12:26:56.629Z,8.27
2023-08-29T12:29:26.522Z,12.25
2023-08-29T12:31:56.380Z,7.10
2023-08-29T12:34:26.657Z,7.78
2023-08-29T12:36:57.017Z,7.25
2023-08-29T12:39:27.052Z,11.05
2023-08-29T12:41:56.966Z,14.98
2023-08-29T12:44:27.026Z,11.48
2023-08-29T12:46:57.052Z,13.63
2023-08-29T12:49:27.118Z,8.43
2023-08-29T12:51:57.040Z,16.27
2023-08-29T12:54:27.400Z,12.93
2023-08-29T12:56:58.152Z,17.33
2023-08-29T12:59:28.214Z,13.10
2023-08-29T13:01:58.313Z,13.82
2023-08-29T13:04:28.438Z,12.45
2023-08-29T13:06:58.627Z,20.77
2023-08-29T13:09:37.438Z,10.55
2023-08-29T13:12:10.046Z,10.85
2023-08-29T13:14:40.644Z,12.05
2023-08-29T13:17:13.548Z,8.98
2023-08-29T13:19:46.077Z,14.32
2023-08-29T13:22:16.277Z,9.70
2023-08-29T13:24:46.397Z,12.55
2023-08-29T13:27:16.452Z,10.20
2023-08-29T13:29:46.547Z,12.88
2023-08-29T13:32:16.606Z,9.38
2023-08-29T13:34:46.411Z,6.32
2023-08-29T13:37:16.458Z,4.07
2023-08-29T13:39:46.573Z,5.72
2023-08-29T13:42:17.836Z,9.10
2023-08-29T13:44:47.931Z,7.50
2023-08-29T13:47:17.951Z,9.50
2023-08-29T13:49:48.068Z,5.90
2023-08-29T13:52:18.142Z,10.20
2023-08-29T13:54:48.514Z,7.88
2023-08-29T13:57:18.665Z,5.40
2023-08-29T13:59:48.765Z,6.22
2023-08-29T14:02:18.663Z,6.63
2023-08-29T14:04:48.800Z,4.25
2023-08-29T14:07:18.907Z,7.00
2023-08-29T14:09:49.196Z,10.13
2023-08-29T14:12:19.327Z,12.20
2023-08-29T14:14:49.647Z,5.78
2023-08-29T14:17:19.771Z,8.20
2023-08-29T14:19:49.663Z,9.20
2023-08-29T14:22:19.736Z,6.55
2023-08-29T14:24:50.034Z,9.13
2023-08-29T14:27:20.111Z,5.72
2023-08-29T14:29:50.183Z,6.20
2023-08-29T14:32:20.972Z,7.22
2023-08-29T14:34:51.068Z,4.55
2023-08-29T14:37:21.129Z,12.25
2023-08-29T14:39:51.817Z,7.32
2023-08-29T14:42:22.275Z,4.20
2023-08-29T14:44:52.433Z,4.18
2023-08-29T14:47:22.494Z,6.32
2023-08-29T14:49:52.683Z,6.90
2023-08-29T14:52:24.031Z,7.55
2023-08-29T14:54:55.420Z,5.82
2023-08-29T14:57:25.520Z,4.32
2023-08-29T14:59:55.644Z,3.70
2023-08-29T15:02:25.935Z,4.05
2023-08-29T15:04:56.049Z,5.85
2023-08-29T15:07:26.154Z,4.53
2023-08-29T15:09:56.295Z,3.03
2023-08-29T15:12:26.478Z,6.72
2023-08-29T15:14:57.379Z,3.78
2023-08-29T15:17:27.739Z,3.88
2023-08-29T15:19:58.585Z,4.30
2023-08-29T15:22:28.659Z,6.68
2023-08-29T15:24:58.632Z,6.13
2023-08-29T15:27:28.681Z,4.70
2023-08-29T15:29:58.592Z,6.00
2023-08-29T15:32:28.696Z,4.15
2023-08-29T15:34:59.804Z,7.95
2023-08-29T15:37:29.867Z,8.40
2023-08-29T15:39:59.970Z,4.20
2023-08-29T15:42:32.172Z,7.10
2023-08-29T15:45:02.347Z,5.53
2023-08-29T15:47:32.240Z,9.90
2023-08-29T15:50:02.366Z,4.15
2023-08-29T15:52:32.470Z,10.90
2023-08-29T15:55:02.604Z,6.55
2023-08-29T15:57:32.724Z,5.88
2023-08-29T16:00:04.329Z,5.32
2023-08-29T16:02:36.224Z,3.72
2023-08-29T16:05:07.549Z,9.02
2023-08-29T16:07:37.582Z,6.90
2023-08-29T16:10:08.595Z,4.18
2023-08-29T16:12:38.860Z,4.55
2023-08-29T16:15:10.157Z,6.07
2023-08-29T16:20:13.130Z,3.85
2023-08-29T16:22:43.206Z,4.07
2023-08-29T16:25:13.896Z,3.10
2023-08-29T16:27:44.032Z,6.68
2023-08-29T16:30:14.793Z,4.60
2023-08-29T16:32:44.884Z,3.60
2023-08-29T16:35:15.040Z,5.22
2023-08-29T16:37:44.902Z,8.93
2023-08-29T16:40:15.007Z,4.47
2023-08-29T16:42:45.092Z,5.50
2023-08-29T16:45:15.236Z,3.75
2023-08-29T16:47:45.334Z,4.43
2023-08-29T16:50:15.386Z,4.32
2023-08-29T16:52:45.449Z,5.50
2023-08-29T16:55:15.844Z,5.53
2023-08-29T16:57:45.865Z,2.97
2023-08-29T17:00:16.323Z,7.43
2023-08-29T17:02:46.453Z,6.30
2023-08-29T17:05:16.668Z,3.28
2023-08-29T17:07:46.467Z,5.30
2023-08-29T17:10:18.294Z,6.25
2023-08-29T17:12:48.432Z,7.72
2023-08-29T17:15:18.901Z,4.57
2023-08-29T17:17:48.962Z,4.15
2023-08-29T17:20:19.458Z,8.48
2023-08-29T17:22:51.503Z,3.92
2023-08-29T17:25:21.656Z,4.65
2023-08-29T17:27:51.466Z,4.43
2023-08-29T17:30:23.015Z,4.57
2023-08-29T17:32:53.155Z,6.82
2023-08-29T17:35:23.320Z,6.50
2023-08-29T17:37:53.366Z,5.75
2023-08-29T17:40:23.553Z,4.40
2023-08-29T17:42:53.669Z,3.92
2023-08-29T17:45:23.755Z,6.35
2023-08-29T17:47:53.758Z,4.35
2023-08-29T17:50:23.925Z,3.40
2023-08-29T17:52:53.789Z,4.18
2023-08-29T17:55:23.608Z,5.22
2023-08-29T17:57:53.419Z,4.75
2023-08-29T18:00:23.706Z,5.82
2023-08-29T18:02:53.885Z,3.78
2023-08-29T18:05:25.368Z,18.95
2023-08-29T18:07:55.718Z,4.57
2023-08-29T18:10:25.608Z,3.55
2023-08-29T18:12:56.133Z,6.38
2023-08-29T18:15:26.457Z,4.10
2023-08-29T18:18:00.727Z,5.03
2023-08-29T18:20:30.854Z,4.03
2023-08-29T18:23:01.329Z,3.47
2023-08-29T18:25:32.150Z,5.95
2023-08-29T18:28:02.225Z,3.97
2023-08-29T18:30:32.149Z,5.00
2023-08-29T18:33:08.472Z,4.20
2023-08-29T18:35:39.000Z,4.97
2023-08-29T18:38:09.464Z,4.18
2023-08-29T18:43:09.966Z,5.93
2023-08-29T18:45:40.022Z,6.63
2023-08-29T18:48:10.986Z,6.57
2023-08-29T18:50:41.982Z,6.25
2023-08-29T18:53:12.054Z,7.63
2023-08-29T18:55:46.169Z,4.65
2023-08-29T18:58:16.205Z,5.25
2023-08-29T19:00:50.069Z,4.30
2023-08-29T19:03:21.049Z,3.85
2023-08-29T19:08:20.571Z,10.35
2023-08-29T19:10:51.534Z,5.78
2023-08-29T19:13:22.548Z,4.60
2023-08-29T19:15:53.683Z,7.93
2023-08-29T19:18:24.558Z,3.72
2023-08-29T19:20:54.708Z,4.43
2023-08-29T19:23:26.793Z,5.45
2023-08-29T19:25:57.251Z,4.28
2023-08-29T19:28:27.356Z,3.03
2023-08-29T19:30:58.102Z,6.40
2023-08-29T19:33:28.303Z,7.40
2023-08-29T19:35:58.253Z,4.45
2023-08-29T19:38:28.354Z,7.30
2023-08-29T19:40:58.786Z,3.42
2023-08-29T19:43:28.849Z,7.15
2023-08-29T19:45:58.894Z,8.68
2023-08-29T19:48:29.086Z,7.70
2023-08-29T19:51:00.150Z,19.88
2023-08-29T19:53:30.437Z,10.93
2023-08-29T19:56:00.579Z,5.57
2023-08-29T19:58:30.452Z,6.22
2023-08-29T20:01:08.419Z,5.90
2023-08-29T20:03:39.344Z,11.27
2023-08-29T20:06:09.431Z,5.20
2023-08-29T20:08:40.081Z,3.90
2023-08-29T20:11:10.285Z,6.05
2023-08-29T20:13:40.368Z,8.52
2023-08-29T20:16:10.474Z,8.30
2023-08-29T20:18:41.941Z,4.28
2023-08-29T20:21:12.019Z,3.97
2023-08-29T20:23:55.461Z,3.88
2023-08-29T20:26:30.051Z,4.13
2023-08-29T20:29:01.552Z,7.47
2023-08-29T20:31:31.699Z,5.50
2023-08-29T20:34:01.661Z,8.02
2023-08-29T20:36:31.784Z,2.35
2023-08-29T20:39:01.657Z,3.53
2023-08-29T20:41:31.508Z,4.03
2023-08-29T20:44:01.348Z,5.55
2023-08-29T20:46:31.930Z,6.40
2023-08-29T20:49:02.046Z,5.88
2023-08-29T20:51:32.252Z,2.72
2023-08-29T20:54:02.394Z,8.43
2023-08-29T20:56:32.414Z,4.88
2023-08-29T20:59:02.518Z,7.85
2023-08-29T21:01:32.851Z,7.15
2023-08-29T21:04:03.075Z,9.32
2023-08-29T21:06:33.278Z,5.00
2023-08-29T21:09:04.361Z,6.65
2023-08-29T21:11:34.456Z,6.45
2023-08-29T21:14:04.537Z,5.45
2023-08-29T21:16:34.674Z,11.00
2023-08-29T21:19:05.128Z,5.80
2023-08-29T21:21:35.230Z,4.63
2023-08-29T21:24:06.416Z,17.38
2023-08-29T21:26:37.609Z,10.70
2023-08-29T21:29:07.974Z,5.10
2023-08-29T21:31:38.081Z,7.75
2023-08-29T21:34:08.173Z,6.90
2023-08-29T21:36:40.440Z,6.78
2023-08-29T21:39:14.478Z,7.95
2023-08-29T21:41:44.621Z,6.22
2023-08-29T21:44:15.412Z,5.10
2023-08-29T21:46:46.318Z,6.97
2023-08-29T21:49:16.439Z,8.45
2023-08-29T21:51:46.548Z,8.38
2023-08-29T21:54:16.970Z,6.53
2023-08-29T21:56:47.041Z,10.07
2023-08-29T21:59:16.908Z,7.65
2023-08-29T22:01:47.045Z,7.82
2023-08-29T22:04:17.464Z,10.38
2023-08-29T22:06:47.547Z,8.30
2023-08-29T22:09:17.768Z,5.13
2023-08-29T22:11:47.820Z,17.73
2023-08-29T22:14:17.856Z,3.92
2023-08-29T22:16:47.918Z,14.43
2023-08-29T22:19:18.365Z,4.10
2023-08-29T22:21:48.476Z,4.65
2023-08-29T22:24:18.512Z,7.05
2023-08-29T22:26:48.593Z,11.48
2023-08-29T22:29:18.635Z,7.72
2023-08-29T22:31:48.510Z,8.23
2023-08-29T22:34:18.642Z,12.68
2023-08-29T22:36:48.618Z,6.65
2023-08-29T22:39:18.775Z,8.00
2023-08-29T22:41:48.770Z,4.82
2023-08-29T22:44:19.599Z,6.75
2023-08-29T22:46:50.392Z,8.00
2023-08-29T22:49:22.007Z,7.95
2023-08-29T22:51:54.674Z,6.13
2023-08-29T22:54:25.733Z,12.57
2023-08-29T22:56:59.086Z,9.65
2023-08-29T22:59:31.499Z,23.20
2023-08-29T23:02:02.880Z,24.33
2023-08-29T23:04:34.182Z,7.60
2023-08-29T23:07:07.737Z,10.35
2023-08-29T23:09:39.791Z,9.57
2023-08-29T23:12:10.774Z,8.90
2023-08-29T23:14:41.974Z,9.40
2023-08-29T23:17:12.954Z,12.15
2023-08-29T23:19:46.854Z,9.07
2023-08-29T23:22:18.535Z,12.95
2023-08-29T23:24:50.943Z,7.45
2023-08-29T23:27:23.244Z,9.07
2023-08-29T23:29:54.582Z,15.70
2023-08-29T23:32:26.371Z,7.63
2023-08-29T23:35:00.514Z,13.38
2023-08-29T23:37:31.722Z,12.93
2023-08-29T23:40:03.249Z,14.18
2023-08-29T23:42:38.045Z,9.07
2023-08-29T23:45:11.446Z,14.95
2023-08-29T23:47:42.740Z,11.68
2023-08-29T23:50:14.147Z,15.00
2023-08-29T23:52:45.204Z,11.43
2023-08-29T23:55:16.411Z,18.73
2023-08-29T23:57:47.675Z,14.10
